sensor_id;sensor_type;location;lat;lon;timestamp;temperature;humidity
1413;DHT22;701;52.526;13.408;2023-02-23T00:00:26;5.90;33.90
1413;DHT22;701;52.526;13.408;2023-02-23T00:02:55;5.90;34.50
1413;DHT22;701;52.526;13.408;2023-02-23T00:05:24;5.90;34.40
1413;DHT22;701;52.526;13.408;2023-02-23T00:07:53;5.80;34.10
1413;DHT22;701;52.526;13.408;2023-02-23T00:10:19;5.90;34.20
1413;DHT22;701;52.526;13.408;2023-02-23T00:12:46;5.90;34.30
1413;DHT22;701;52.526;13.408;2023-02-23T00:15:15;5.90;34.10
1413;DHT22;701;52.526;13.408;2023-02-23T00:17:41;5.90;34.40
1413;DHT22;701;52.526;13.408;2023-02-23T00:20:09;5.80;34.40
1413;DHT22;701;52.526;13.408;2023-02-23T00:22:40;5.90;34.20
1413;DHT22;701;52.526;13.408;2023-02-23T00:25:07;5.90;34.20
1413;DHT22;701;52.526;13.408;2023-02-23T00:27:36;5.90;34.30
1413;DHT22;701;52.526;13.408;2023-02-23T00:30:10;5.90;34.30
1413;DHT22;701;52.526;13.408;2023-02-23T00:32:36;5.90;34.30
1413;DHT22;701;52.526;13.408;2023-02-23T00:35:03;5.90;34.30
1413;DHT22;701;52.526;13.408;2023-02-23T00:37:29;5.90;34.30
1413;DHT22;701;52.526;13.408;2023-02-23T00:39:55;5.90;34.10
1413;DHT22;701;52.526;13.408;2023-02-23T00:42:22;5.90;34.20
1413;DHT22;701;52.526;13.408;2023-02-23T00:44:49;5.90;34.10
1413;DHT22;701;52.526;13.408;2023-02-23T00:47:14;5.90;34.10
1413;DHT22;701;52.526;13.408;2023-02-23T00:49:40;5.90;34.00
1413;DHT22;701;52.526;13.408;2023-02-23T00:52:10;5.90;34.00
1413;DHT22;701;52.526;13.408;2023-02-23T00:54:35;5.90;34.00
1413;DHT22;701;52.526;13.408;2023-02-23T00:57:04;5.80;34.20
1413;DHT22;701;52.526;13.408;2023-02-23T00:59:30;5.80;34.20
1413;DHT22;701;52.526;13.408;2023-02-23T01:01:55;5.80;34.80
1413;DHT22;701;52.526;13.408;2023-02-23T01:04:22;5.80;34.10
1413;DHT22;701;52.526;13.408;2023-02-23T01:06:47;5.80;34.10
1413;DHT22;701;52.526;13.408;2023-02-23T01:09:15;5.80;34.20
1413;DHT22;701;52.526;13.408;2023-02-23T01:11:52;5.80;34.30
1413;DHT22;701;52.526;13.408;2023-02-23T01:14:18;5.80;35.00
1413;DHT22;701;52.526;13.408;2023-02-23T01:16:45;5.80;34.30
1413;DHT22;701;52.526;13.408;2023-02-23T01:19:13;5.80;34.40
1413;DHT22;701;52.526;13.408;2023-02-23T01:21:41;5.80;34.40
1413;DHT22;701;52.526;13.408;2023-02-23T01:24:07;5.70;34.50
1413;DHT22;701;52.526;13.408;2023-02-23T01:26:36;5.70;34.30
1413;DHT22;701;52.526;13.408;2023-02-23T01:29:08;5.80;34.50
1413;DHT22;701;52.526;13.408;2023-02-23T01:31:37;5.70;34.50
1413;DHT22;701;52.526;13.408;2023-02-23T01:34:04;5.80;34.50
1413;DHT22;701;52.526;13.408;2023-02-23T01:36:36;5.80;34.60
1413;DHT22;701;52.526;13.408;2023-02-23T01:39:05;5.70;35.00
1413;DHT22;701;52.526;13.408;2023-02-23T01:41:34;5.80;34.50
1413;DHT22;701;52.526;13.408;2023-02-23T01:46:26;5.80;34.40
1413;DHT22;701;52.526;13.408;2023-02-23T01:48:53;5.70;34.30
1413;DHT22;701;52.526;13.408;2023-02-23T01:51:24;5.70;34.20
1413;DHT22;701;52.526;13.408;2023-02-23T01:53:58;5.70;34.20
1413;DHT22;701;52.526;13.408;2023-02-23T01:56:30;5.80;34.30
1413;DHT22;701;52.526;13.408;2023-02-23T01:58:58;5.70;34.20
1413;DHT22;701;52.526;13.408;2023-02-23T02:01:26;5.70;34.20
1413;DHT22;701;52.526;13.408;2023-02-23T02:03:57;5.70;34.20
1413;DHT22;701;52.526;13.408;2023-02-23T02:06:26;5.70;34.30
1413;DHT22;701;52.526;13.408;2023-02-23T02:09:00;5.80;34.30
1413;DHT22;701;52.526;13.408;2023-02-23T02:11:31;5.70;34.10
1413;DHT22;701;52.526;13.408;2023-02-23T02:14:09;5.70;34.30
1413;DHT22;701;52.526;13.408;2023-02-23T02:16:50;5.70;34.80
1413;DHT22;701;52.526;13.408;2023-02-23T02:39:11;5.50;34.70
1413;DHT22;701;52.526;13.408;2023-02-23T02:44:38;5.50;34.90
1413;DHT22;701;52.526;13.408;2023-02-23T02:47:15;5.40;35.30
1413;DHT22;701;52.526;13.408;2023-02-23T02:55:13;5.50;35.30
1413;DHT22;701;52.526;13.408;2023-02-23T02:57:42;5.50;35.30
1413;DHT22;701;52.526;13.408;2023-02-23T03:00:17;5.50;35.20
1413;DHT22;701;52.526;13.408;2023-02-23T03:03:02;5.50;35.10
1413;DHT22;701;52.526;13.408;2023-02-23T03:05:50;5.50;35.10
1413;DHT22;701;52.526;13.408;2023-02-23T03:08:59;5.50;35.00
1413;DHT22;701;52.526;13.408;2023-02-23T03:12:05;5.50;35.00
1413;DHT22;701;52.526;13.408;2023-02-23T03:14:55;5.40;35.00
1413;DHT22;701;52.526;13.408;2023-02-23T03:17:45;5.40;35.00
1413;DHT22;701;52.526;13.408;2023-02-23T03:20:44;5.40;35.10
1413;DHT22;701;52.526;13.408;2023-02-23T03:24:00;5.40;35.00
1413;DHT22;701;52.526;13.408;2023-02-23T03:30:47;5.40;35.30
1413;DHT22;701;52.526;13.408;2023-02-23T03:33:53;5.40;35.40
1413;DHT22;701;52.526;13.408;2023-02-23T03:36:45;5.40;35.70
1413;DHT22;701;52.526;13.408;2023-02-23T03:39:39;5.30;35.60
1413;DHT22;701;52.526;13.408;2023-02-23T03:42:29;5.30;35.60
1413;DHT22;701;52.526;13.408;2023-02-23T03:45:18;5.30;35.70
1413;DHT22;701;52.526;13.408;2023-02-23T03:48:05;5.30;35.80
1413;DHT22;701;52.526;13.408;2023-02-23T03:50:53;5.30;35.90
1413;DHT22;701;52.526;13.408;2023-02-23T03:53:49;5.20;36.10
1413;DHT22;701;52.526;13.408;2023-02-23T03:56:37;5.30;36.00
1413;DHT22;701;52.526;13.408;2023-02-23T03:59:25;5.20;35.90
1413;DHT22;701;52.526;13.408;2023-02-23T04:02:12;5.20;35.80
1413;DHT22;701;52.526;13.408;2023-02-23T04:05:00;5.20;36.10
1413;DHT22;701;52.526;13.408;2023-02-23T04:07:46;5.10;36.60
1413;DHT22;701;52.526;13.408;2023-02-23T04:10:33;5.10;36.50
1413;DHT22;701;52.526;13.408;2023-02-23T04:13:22;5.00;37.00
1413;DHT22;701;52.526;13.408;2023-02-23T04:15:58;5.00;36.90
1413;DHT22;701;52.526;13.408;2023-02-23T04:18:29;5.00;37.00
1413;DHT22;701;52.526;13.408;2023-02-23T04:20:56;5.00;36.90
1413;DHT22;701;52.526;13.408;2023-02-23T04:23:22;4.90;36.90
1413;DHT22;701;52.526;13.408;2023-02-23T04:25:52;4.90;36.90
1413;DHT22;701;52.526;13.408;2023-02-23T04:28:19;4.90;36.90
1413;DHT22;701;52.526;13.408;2023-02-23T04:30:46;4.90;36.90
1413;DHT22;701;52.526;13.408;2023-02-23T04:33:12;4.90;36.90
1413;DHT22;701;52.526;13.408;2023-02-23T04:35:38;4.80;36.90
1413;DHT22;701;52.526;13.408;2023-02-23T04:38:04;4.80;37.20
1413;DHT22;701;52.526;13.408;2023-02-23T04:40:30;4.80;37.40
1413;DHT22;701;52.526;13.408;2023-02-23T04:42:56;4.80;37.20
1413;DHT22;701;52.526;13.408;2023-02-23T04:45:23;4.80;37.40
1413;DHT22;701;52.526;13.408;2023-02-23T04:47:48;4.80;37.50
1413;DHT22;701;52.526;13.408;2023-02-23T04:50:15;4.70;37.70
1413;DHT22;701;52.526;13.408;2023-02-23T04:52:41;4.70;37.70
1413;DHT22;701;52.526;13.408;2023-02-23T04:55:10;4.70;37.90
1413;DHT22;701;52.526;13.408;2023-02-23T04:57:39;4.70;38.30
1413;DHT22;701;52.526;13.408;2023-02-23T05:00:06;4.60;38.30
1413;DHT22;701;52.526;13.408;2023-02-23T05:02:32;4.60;38.30
1413;DHT22;701;52.526;13.408;2023-02-23T05:04:57;4.60;38.20
1413;DHT22;701;52.526;13.408;2023-02-23T05:07:23;4.60;38.40
1413;DHT22;701;52.526;13.408;2023-02-23T05:09:49;4.60;38.50
1413;DHT22;701;52.526;13.408;2023-02-23T05:12:15;4.60;38.50
1413;DHT22;701;52.526;13.408;2023-02-23T05:14:41;4.60;38.40
1413;DHT22;701;52.526;13.408;2023-02-23T05:17:06;4.60;38.40
1413;DHT22;701;52.526;13.408;2023-02-23T05:19:32;4.60;38.70
1413;DHT22;701;52.526;13.408;2023-02-23T05:21:58;4.60;38.50
1413;DHT22;701;52.526;13.408;2023-02-23T05:24:24;4.60;38.40
1413;DHT22;701;52.526;13.408;2023-02-23T05:26:50;4.60;38.40
1413;DHT22;701;52.526;13.408;2023-02-23T05:29:16;4.50;38.50
1413;DHT22;701;52.526;13.408;2023-02-23T05:31:42;4.50;38.50
1413;DHT22;701;52.526;13.408;2023-02-23T05:34:07;4.50;38.80
1413;DHT22;701;52.526;13.408;2023-02-23T05:36:33;4.50;38.80
1413;DHT22;701;52.526;13.408;2023-02-23T05:38:59;4.40;39.20
1413;DHT22;701;52.526;13.408;2023-02-23T05:41:24;4.40;39.10
1413;DHT22;701;52.526;13.408;2023-02-23T05:43:53;4.40;39.20
1413;DHT22;701;52.526;13.408;2023-02-23T05:46:22;4.30;39.40
1413;DHT22;701;52.526;13.408;2023-02-23T05:48:48;4.30;39.70
1413;DHT22;701;52.526;13.408;2023-02-23T05:51:16;4.30;39.40
1413;DHT22;701;52.526;13.408;2023-02-23T05:53:43;4.30;39.40
1413;DHT22;701;52.526;13.408;2023-02-23T05:56:12;4.30;39.70
1413;DHT22;701;52.526;13.408;2023-02-23T05:58:39;4.30;40.00
1413;DHT22;701;52.526;13.408;2023-02-23T06:01:04;4.20;40.00
1413;DHT22;701;52.526;13.408;2023-02-23T06:03:31;4.20;40.30
1413;DHT22;701;52.526;13.408;2023-02-23T06:05:57;4.10;40.30
1413;DHT22;701;52.526;13.408;2023-02-23T06:08:24;4.20;40.60
1413;DHT22;701;52.526;13.408;2023-02-23T06:10:51;4.10;40.50
1413;DHT22;701;52.526;13.408;2023-02-23T06:13:17;4.10;40.50
1413;DHT22;701;52.526;13.408;2023-02-23T06:15:43;4.10;40.50
1413;DHT22;701;52.526;13.408;2023-02-23T06:18:09;4.10;40.50
1413;DHT22;701;52.526;13.408;2023-02-23T06:20:36;4.10;40.60
1413;DHT22;701;52.526;13.408;2023-02-23T06:23:02;4.10;40.50
1413;DHT22;701;52.526;13.408;2023-02-23T06:25:28;4.10;40.50
1413;DHT22;701;52.526;13.408;2023-02-23T06:27:54;4.10;40.50
1413;DHT22;701;52.526;13.408;2023-02-23T06:30:19;4.10;40.50
1413;DHT22;701;52.526;13.408;2023-02-23T06:32:45;4.10;40.40
1413;DHT22;701;52.526;13.408;2023-02-23T06:35:14;4.20;40.60
1413;DHT22;701;52.526;13.408;2023-02-23T06:37:40;4.20;40.60
1413;DHT22;701;52.526;13.408;2023-02-23T06:40:06;4.20;40.70
1413;DHT22;701;52.526;13.408;2023-02-23T06:42:32;4.20;40.60
1413;DHT22;701;52.526;13.408;2023-02-23T06:45:00;4.20;40.60
1413;DHT22;701;52.526;13.408;2023-02-23T06:47:26;4.30;40.60
1413;DHT22;701;52.526;13.408;2023-02-23T06:49:52;4.30;40.40
1413;DHT22;701;52.526;13.408;2023-02-23T06:52:17;4.40;40.40
1413;DHT22;701;52.526;13.408;2023-02-23T06:54:43;4.40;40.30
1413;DHT22;701;52.526;13.408;2023-02-23T06:57:09;4.50;40.10
1413;DHT22;701;52.526;13.408;2023-02-23T06:59:35;4.60;39.90
1413;DHT22;701;52.526;13.408;2023-02-23T07:02:02;4.70;39.30
1413;DHT22;701;52.526;13.408;2023-02-23T07:04:32;4.80;39.40
1413;DHT22;701;52.526;13.408;2023-02-23T07:06:58;4.90;38.50
1413;DHT22;701;52.526;13.408;2023-02-23T07:09:24;5.00;38.10
1413;DHT22;701;52.526;13.408;2023-02-23T07:11:49;5.10;37.70
1413;DHT22;701;52.526;13.408;2023-02-23T07:14:17;5.30;37.40
1413;DHT22;701;52.526;13.408;2023-02-23T07:16:42;5.40;37.30
1413;DHT22;701;52.526;13.408;2023-02-23T07:19:08;5.60;36.50
1413;DHT22;701;52.526;13.408;2023-02-23T07:21:34;5.70;35.90
1413;DHT22;701;52.526;13.408;2023-02-23T07:24:01;5.80;35.40
1413;DHT22;701;52.526;13.408;2023-02-23T07:26:30;6.00;34.50
1413;DHT22;701;52.526;13.408;2023-02-23T07:28:55;6.10;34.40
1413;DHT22;701;52.526;13.408;2023-02-23T07:31:21;6.20;33.00
1413;DHT22;701;52.526;13.408;2023-02-23T07:33:47;6.30;32.70
1413;DHT22;701;52.526;13.408;2023-02-23T07:36:12;6.30;32.50
1413;DHT22;701;52.526;13.408;2023-02-23T07:38:38;6.40;31.60
1413;DHT22;701;52.526;13.408;2023-02-23T07:41:04;6.50;31.20
1413;DHT22;701;52.526;13.408;2023-02-23T07:43:30;6.60;31.10
1413;DHT22;701;52.526;13.408;2023-02-23T07:46:00;6.60;30.50
1413;DHT22;701;52.526;13.408;2023-02-23T07:48:26;6.70;30.10
1413;DHT22;701;52.526;13.408;2023-02-23T07:50:52;6.70;29.70
1413;DHT22;701;52.526;13.408;2023-02-23T07:53:18;6.70;29.70
1413;DHT22;701;52.526;13.408;2023-02-23T07:55:44;6.70;29.70
1413;DHT22;701;52.526;13.408;2023-02-23T07:58:10;6.80;29.80
1413;DHT22;701;52.526;13.408;2023-02-23T08:00:38;6.90;29.80
1413;DHT22;701;52.526;13.408;2023-02-23T08:03:05;7.00;29.70
1413;DHT22;701;52.526;13.408;2023-02-23T08:05:31;7.10;28.80
1413;DHT22;701;52.526;13.408;2023-02-23T08:07:57;7.10;28.40
1413;DHT22;701;52.526;13.408;2023-02-23T08:10:23;7.20;28.70
1413;DHT22;701;52.526;13.408;2023-02-23T08:12:50;7.30;28.60
1413;DHT22;701;52.526;13.408;2023-02-23T08:15:15;7.50;28.20
1413;DHT22;701;52.526;13.408;2023-02-23T08:17:41;7.60;28.00
1413;DHT22;701;52.526;13.408;2023-02-23T08:20:08;7.70;27.50
1413;DHT22;701;52.526;13.408;2023-02-23T08:22:34;7.80;27.30
1413;DHT22;701;52.526;13.408;2023-02-23T08:25:00;7.90;27.20
1413;DHT22;701;52.526;13.408;2023-02-23T08:27:27;8.00;27.00
1413;DHT22;701;52.526;13.408;2023-02-23T08:29:56;8.10;27.10
1413;DHT22;701;52.526;13.408;2023-02-23T08:32:22;8.20;26.50
1413;DHT22;701;52.526;13.408;2023-02-23T08:34:48;8.20;26.50
1413;DHT22;701;52.526;13.408;2023-02-23T08:37:13;8.30;25.90
1413;DHT22;701;52.526;13.408;2023-02-23T08:39:39;8.40;25.70
1413;DHT22;701;52.526;13.408;2023-02-23T08:42:05;8.40;25.10
1413;DHT22;701;52.526;13.408;2023-02-23T08:44:31;8.50;25.20
1413;DHT22;701;52.526;13.408;2023-02-23T08:46:56;8.50;25.00
1413;DHT22;701;52.526;13.408;2023-02-23T08:49:23;8.60;25.00
1413;DHT22;701;52.526;13.408;2023-02-23T08:51:50;8.60;24.80
1413;DHT22;701;52.526;13.408;2023-02-23T08:54:16;8.70;24.70
1413;DHT22;701;52.526;13.408;2023-02-23T08:56:43;8.80;24.30
1413;DHT22;701;52.526;13.408;2023-02-23T08:59:10;8.90;24.10
1413;DHT22;701;52.526;13.408;2023-02-23T09:01:36;8.90;24.10
1413;DHT22;701;52.526;13.408;2023-02-23T09:04:04;9.00;24.10
1413;DHT22;701;52.526;13.408;2023-02-23T09:06:31;9.10;24.20
1413;DHT22;701;52.526;13.408;2023-02-23T09:08:57;9.10;24.20
1413;DHT22;701;52.526;13.408;2023-02-23T09:11:23;9.20;23.80
1413;DHT22;701;52.526;13.408;2023-02-23T09:13:49;9.20;23.50
1413;DHT22;701;52.526;13.408;2023-02-23T09:16:15;9.30;23.70
1413;DHT22;701;52.526;13.408;2023-02-23T09:18:41;9.30;23.50
1413;DHT22;701;52.526;13.408;2023-02-23T09:21:12;9.40;23.30
1413;DHT22;701;52.526;13.408;2023-02-23T09:23:43;9.50;23.30
1413;DHT22;701;52.526;13.408;2023-02-23T09:26:11;9.60;23.20
1413;DHT22;701;52.526;13.408;2023-02-23T09:28:37;9.70;23.00
1413;DHT22;701;52.526;13.408;2023-02-23T09:31:11;9.80;22.90
1413;DHT22;701;52.526;13.408;2023-02-23T09:33:37;9.90;22.70
1413;DHT22;701;52.526;13.408;2023-02-23T09:38:59;10.10;21.70
1413;DHT22;701;52.526;13.408;2023-02-23T09:49:48;10.70;20.80
1413;DHT22;701;52.526;13.408;2023-02-23T09:52:21;10.70;20.20
1413;DHT22;701;52.526;13.408;2023-02-23T09:54:48;10.80;20.10
1413;DHT22;701;52.526;13.408;2023-02-23T09:57:18;10.90;20.30
1413;DHT22;701;52.526;13.408;2023-02-23T09:59:47;11.10;20.10
1413;DHT22;701;52.526;13.408;2023-02-23T10:02:25;11.30;19.70
1413;DHT22;701;52.526;13.408;2023-02-23T10:05:03;11.50;19.00
1413;DHT22;701;52.526;13.408;2023-02-23T10:07:54;11.80;18.80
1413;DHT22;701;52.526;13.408;2023-02-23T10:10:43;12.20;18.10
1413;DHT22;701;52.526;13.408;2023-02-23T10:13:45;12.50;17.70
1413;DHT22;701;52.526;13.408;2023-02-23T10:19:05;13.30;15.80
1413;DHT22;701;52.526;13.408;2023-02-23T10:21:38;13.60;15.60
1413;DHT22;701;52.526;13.408;2023-02-23T10:24:20;13.80;15.10
1413;DHT22;701;52.526;13.408;2023-02-23T10:26:53;14.00;15.00
1413;DHT22;701;52.526;13.408;2023-02-23T10:29:25;14.20;14.00
1413;DHT22;701;52.526;13.408;2023-02-23T10:31:56;14.30;14.10
1413;DHT22;701;52.526;13.408;2023-02-23T10:34:23;14.50;13.80
1413;DHT22;701;52.526;13.408;2023-02-23T10:37:00;14.60;13.40
1413;DHT22;701;52.526;13.408;2023-02-23T10:39:28;14.90;12.90
1413;DHT22;701;52.526;13.408;2023-02-23T10:41:59;15.10;13.40
1413;DHT22;701;52.526;13.408;2023-02-23T10:44:27;15.30;13.00
1413;DHT22;701;52.526;13.408;2023-02-23T10:47:04;15.30;12.40
1413;DHT22;701;52.526;13.408;2023-02-23T10:49:43;15.20;12.10
1413;DHT22;701;52.526;13.408;2023-02-23T10:52:16;15.30;12.20
1413;DHT22;701;52.526;13.408;2023-02-23T10:54:47;15.40;12.40
1413;DHT22;701;52.526;13.408;2023-02-23T11:02:43;15.30;12.20
1413;DHT22;701;52.526;13.408;2023-02-23T11:05:46;15.30;13.00
1413;DHT22;701;52.526;13.408;2023-02-23T11:13:42;15.30;12.40
1413;DHT22;701;52.526;13.408;2023-02-23T11:16:12;15.20;12.90
1413;DHT22;701;52.526;13.408;2023-02-23T11:18:41;15.10;12.80
1413;DHT22;701;52.526;13.408;2023-02-23T11:21:20;15.00;12.80
1413;DHT22;701;52.526;13.408;2023-02-23T11:23:50;15.00;12.90
1413;DHT22;701;52.526;13.408;2023-02-23T11:26:28;15.00;13.30
1413;DHT22;701;52.526;13.408;2023-02-23T11:28:58;15.00;13.20
1413;DHT22;701;52.526;13.408;2023-02-23T11:31:29;15.00;13.40
1413;DHT22;701;52.526;13.408;2023-02-23T11:33:57;15.10;13.50
1413;DHT22;701;52.526;13.408;2023-02-23T11:36:31;15.10;13.50
1413;DHT22;701;52.526;13.408;2023-02-23T11:39:20;15.20;13.40
1413;DHT22;701;52.526;13.408;2023-02-23T11:42:18;15.20;12.90
1413;DHT22;701;52.526;13.408;2023-02-23T11:47:27;15.40;13.10
1413;DHT22;701;52.526;13.408;2023-02-23T11:49:53;15.40;13.10
1413;DHT22;701;52.526;13.408;2023-02-23T11:52:21;15.40;13.10
1413;DHT22;701;52.526;13.408;2023-02-23T11:55:01;15.40;13.10
1413;DHT22;701;52.526;13.408;2023-02-23T11:57:29;15.50;13.10
1413;DHT22;701;52.526;13.408;2023-02-23T11:59:58;15.50;13.10
1413;DHT22;701;52.526;13.408;2023-02-23T12:02:29;15.60;13.20
1413;DHT22;701;52.526;13.408;2023-02-23T12:05:06;15.70;13.00
1413;DHT22;701;52.526;13.408;2023-02-23T12:07:46;15.80;12.80
1413;DHT22;701;52.526;13.408;2023-02-23T12:10:20;15.90;12.80
1413;DHT22;701;52.526;13.408;2023-02-23T12:16:23;16.10;12.00
1413;DHT22;701;52.526;13.408;2023-02-23T12:22:14;16.30;12.20
1413;DHT22;701;52.526;13.408;2023-02-23T12:24:53;16.30;12.30
1413;DHT22;701;52.526;13.408;2023-02-23T12:27:30;16.30;12.40
1413;DHT22;701;52.526;13.408;2023-02-23T12:30:10;16.30;12.40
1413;DHT22;701;52.526;13.408;2023-02-23T12:32:55;16.30;12.60
1413;DHT22;701;52.526;13.408;2023-02-23T12:35:32;16.30;12.50
1413;DHT22;701;52.526;13.408;2023-02-23T12:38:11;16.20;12.40
1413;DHT22;701;52.526;13.408;2023-02-23T12:40:38;16.20;12.80
1413;DHT22;701;52.526;13.408;2023-02-23T12:43:18;16.10;12.90
1413;DHT22;701;52.526;13.408;2023-02-23T12:45:58;16.00;12.90
1413;DHT22;701;52.526;13.408;2023-02-23T12:48:45;15.90;13.40
1413;DHT22;701;52.526;13.408;2023-02-23T12:51:40;15.80;13.30
1413;DHT22;701;52.526;13.408;2023-02-23T12:54:16;15.70;13.20
1413;DHT22;701;52.526;13.408;2023-02-23T13:00:31;15.50;13.90
1413;DHT22;701;52.526;13.408;2023-02-23T13:02:51;15.30;14.10
1413;DHT22;701;52.526;13.408;2023-02-23T13:05:29;15.30;14.40
1413;DHT22;701;52.526;13.408;2023-02-23T13:08:30;15.40;14.50
1413;DHT22;701;52.526;13.408;2023-02-23T13:19:12;15.30;14.90
1413;DHT22;701;52.526;13.408;2023-02-23T13:24:33;15.30;15.00
1413;DHT22;701;52.526;13.408;2023-02-23T13:27:11;15.30;15.20
1413;DHT22;701;52.526;13.408;2023-02-23T13:29:41;15.30;15.20
1413;DHT22;701;52.526;13.408;2023-02-23T13:32:14;15.40;15.20
1413;DHT22;701;52.526;13.408;2023-02-23T13:37:16;15.40;15.20
1413;DHT22;701;52.526;13.408;2023-02-23T13:53:06;14.80;16.40
1413;DHT22;701;52.526;13.408;2023-02-23T13:55:36;14.80;16.50
1413;DHT22;701;52.526;13.408;2023-02-23T13:58:13;14.70;16.90
1413;DHT22;701;52.526;13.408;2023-02-23T14:00:41;14.60;17.30
1413;DHT22;701;52.526;13.408;2023-02-23T14:03:21;14.60;17.50
1413;DHT22;701;52.526;13.408;2023-02-23T14:05:53;14.50;17.80
1413;DHT22;701;52.526;13.408;2023-02-23T14:08:41;14.50;18.00
1413;DHT22;701;52.526;13.408;2023-02-23T14:11:08;14.40;18.20
1413;DHT22;701;52.526;13.408;2023-02-23T14:13:39;14.40;18.30
1413;DHT22;701;52.526;13.408;2023-02-23T14:16:19;14.20;18.80
1413;DHT22;701;52.526;13.408;2023-02-23T14:19:09;14.10;19.10
1413;DHT22;701;52.526;13.408;2023-02-23T14:21:50;14.00;19.50
1413;DHT22;701;52.526;13.408;2023-02-23T14:24:23;13.90;19.50
1413;DHT22;701;52.526;13.408;2023-02-23T14:27:19;13.80;19.40
1413;DHT22;701;52.526;13.408;2023-02-23T14:32:54;13.60;20.50
1413;DHT22;701;52.526;13.408;2023-02-23T14:40:52;13.40;21.70
1413;DHT22;701;52.526;13.408;2023-02-23T14:43:48;13.30;21.60
1413;DHT22;701;52.526;13.408;2023-02-23T14:46:20;13.20;22.90
1413;DHT22;701;52.526;13.408;2023-02-23T14:49:13;13.20;22.20
1413;DHT22;701;52.526;13.408;2023-02-23T14:51:46;13.10;22.50
1413;DHT22;701;52.526;13.408;2023-02-23T14:54:33;13.10;22.70
1413;DHT22;701;52.526;13.408;2023-02-23T14:57:02;13.00;23.50
1413;DHT22;701;52.526;13.408;2023-02-23T14:59:39;13.00;23.10
1413;DHT22;701;52.526;13.408;2023-02-23T15:02:18;12.90;23.40
1413;DHT22;701;52.526;13.408;2023-02-23T15:04:45;12.90;23.70
1413;DHT22;701;52.526;13.408;2023-02-23T15:07:24;12.90;23.60
1413;DHT22;701;52.526;13.408;2023-02-23T15:09:55;12.90;24.30
1413;DHT22;701;52.526;13.408;2023-02-23T15:12:23;12.80;24.60
1413;DHT22;701;52.526;13.408;2023-02-23T15:14:58;12.70;24.50
1413;DHT22;701;52.526;13.408;2023-02-23T15:17:27;12.70;24.70
1413;DHT22;701;52.526;13.408;2023-02-23T15:19:59;12.70;25.00
1413;DHT22;701;52.526;13.408;2023-02-23T15:22:27;12.60;25.00
1413;DHT22;701;52.526;13.408;2023-02-23T15:24:58;12.60;25.30
1413;DHT22;701;52.526;13.408;2023-02-23T15:27:30;12.50;25.30
1413;DHT22;701;52.526;13.408;2023-02-23T15:30:26;12.50;25.70
1413;DHT22;701;52.526;13.408;2023-02-23T15:33:09;12.40;25.70
1413;DHT22;701;52.526;13.408;2023-02-23T15:35:40;12.40;25.70
1413;DHT22;701;52.526;13.408;2023-02-23T15:38:15;12.40;25.70
1413;DHT22;701;52.526;13.408;2023-02-23T15:40:42;12.30;25.60
1413;DHT22;701;52.526;13.408;2023-02-23T15:43:09;12.30;25.60
1413;DHT22;701;52.526;13.408;2023-02-23T15:45:43;12.30;25.80
1413;DHT22;701;52.526;13.408;2023-02-23T15:48:20;12.20;26.10
1413;DHT22;701;52.526;13.408;2023-02-23T15:50:56;12.20;26.30
1413;DHT22;701;52.526;13.408;2023-02-23T15:53:29;12.20;26.20
1413;DHT22;701;52.526;13.408;2023-02-23T15:56:03;12.10;26.50
1413;DHT22;701;52.526;13.408;2023-02-23T15:58:36;12.10;26.40
1413;DHT22;701;52.526;13.408;2023-02-23T16:01:10;12.10;26.60
1413;DHT22;701;52.526;13.408;2023-02-23T16:03:38;12.10;26.90
1413;DHT22;701;52.526;13.408;2023-02-23T16:06:32;12.00;26.80
1413;DHT22;701;52.526;13.408;2023-02-23T16:09:01;12.00;27.30
1413;DHT22;701;52.526;13.408;2023-02-23T16:11:34;11.90;27.00
1413;DHT22;701;52.526;13.408;2023-02-23T16:14:02;11.90;27.20
1413;DHT22;701;52.526;13.408;2023-02-23T16:16:30;11.90;27.20
1413;DHT22;701;52.526;13.408;2023-02-23T16:18:59;11.80;27.30
1413;DHT22;701;52.526;13.408;2023-02-23T16:21:28;11.80;27.30
1413;DHT22;701;52.526;13.408;2023-02-23T16:23:59;11.80;27.50
1413;DHT22;701;52.526;13.408;2023-02-23T16:26:36;11.70;27.70
1413;DHT22;701;52.526;13.408;2023-02-23T16:29:09;11.70;27.80
1413;DHT22;701;52.526;13.408;2023-02-23T16:31:44;11.70;28.00
1413;DHT22;701;52.526;13.408;2023-02-23T16:37:19;11.70;28.60
1413;DHT22;701;52.526;13.408;2023-02-23T16:39:47;11.70;28.30
1413;DHT22;701;52.526;13.408;2023-02-23T16:42:33;11.70;28.70
1413;DHT22;701;52.526;13.408;2023-02-23T16:45:00;11.60;28.90
1413;DHT22;701;52.526;13.408;2023-02-23T16:47:40;11.60;28.60
1413;DHT22;701;52.526;13.408;2023-02-23T16:50:21;11.60;29.30
1413;DHT22;701;52.526;13.408;2023-02-23T16:52:50;11.60;29.50
1413;DHT22;701;52.526;13.408;2023-02-23T16:55:18;11.60;29.80
1413;DHT22;701;52.526;13.408;2023-02-23T16:57:46;11.60;29.90
1413;DHT22;701;52.526;13.408;2023-02-23T17:00:22;11.60;30.00
1413;DHT22;701;52.526;13.408;2023-02-23T17:02:49;11.60;30.50
1413;DHT22;701;52.526;13.408;2023-02-23T17:05:18;11.50;31.00
1413;DHT22;701;52.526;13.408;2023-02-23T17:07:46;11.50;31.40
1413;DHT22;701;52.526;13.408;2023-02-23T17:10:19;11.50;32.40
1413;DHT22;701;52.526;13.408;2023-02-23T17:12:54;11.40;31.80
1413;DHT22;701;52.526;13.408;2023-02-23T17:15:21;11.40;32.40
1413;DHT22;701;52.526;13.408;2023-02-23T17:17:47;11.40;32.40
1413;DHT22;701;52.526;13.408;2023-02-23T17:20:13;11.40;32.50
1413;DHT22;701;52.526;13.408;2023-02-23T17:22:42;11.40;33.40
1413;DHT22;701;52.526;13.408;2023-02-23T17:25:09;11.30;33.40
1413;DHT22;701;52.526;13.408;2023-02-23T17:27:35;11.30;33.80
1413;DHT22;701;52.526;13.408;2023-02-23T17:30:01;11.30;34.60
1413;DHT22;701;52.526;13.408;2023-02-23T17:32:26;11.30;34.90
1413;DHT22;701;52.526;13.408;2023-02-23T17:34:54;11.20;35.10
1413;DHT22;701;52.526;13.408;2023-02-23T17:37:21;11.20;35.10
1413;DHT22;701;52.526;13.408;2023-02-23T17:39:46;11.20;35.60
1413;DHT22;701;52.526;13.408;2023-02-23T17:42:16;11.20;35.90
1413;DHT22;701;52.526;13.408;2023-02-23T17:44:42;11.20;36.00
1413;DHT22;701;52.526;13.408;2023-02-23T17:47:09;11.20;36.70
1413;DHT22;701;52.526;13.408;2023-02-23T17:49:35;11.20;36.70
1413;DHT22;701;52.526;13.408;2023-02-23T17:52:01;11.20;36.70
1413;DHT22;701;52.526;13.408;2023-02-23T17:54:28;11.20;36.70
1413;DHT22;701;52.526;13.408;2023-02-23T17:56:53;11.20;36.70
1413;DHT22;701;52.526;13.408;2023-02-23T17:59:20;11.20;37.20
1413;DHT22;701;52.526;13.408;2023-02-23T18:01:45;11.20;37.40
1413;DHT22;701;52.526;13.408;2023-02-23T18:04:13;11.20;38.00
1413;DHT22;701;52.526;13.408;2023-02-23T18:06:39;11.20;37.90
1413;DHT22;701;52.526;13.408;2023-02-23T18:09:05;11.20;38.20
1413;DHT22;701;52.526;13.408;2023-02-23T18:11:32;11.10;38.40
1413;DHT22;701;52.526;13.408;2023-02-23T18:13:59;11.10;38.80
1413;DHT22;701;52.526;13.408;2023-02-23T18:16:27;11.00;38.90
1413;DHT22;701;52.526;13.408;2023-02-23T18:18:53;11.00;39.10
1413;DHT22;701;52.526;13.408;2023-02-23T18:21:20;11.00;39.40
1413;DHT22;701;52.526;13.408;2023-02-23T18:23:47;11.00;39.50
1413;DHT22;701;52.526;13.408;2023-02-23T18:26:17;10.90;39.70
1413;DHT22;701;52.526;13.408;2023-02-23T18:28:44;11.00;40.00